createdAt,value
2023-02-25T00:03:59.508Z,11.67
2023-02-25T00:09:07.269Z,12.33
2023-02-25T00:14:12.625Z,10.90
2023-02-25T00:19:17.765Z,12.13
2023-02-25T00:24:27.185Z,13.77
2023-02-25T00:29:33.066Z,11.30
2023-02-25T00:34:38.393Z,15.07
2023-02-25T00:39:46.027Z,14.23
2023-02-25T00:44:52.510Z,12.47
2023-02-25T00:49:57.424Z,11.27
2023-02-25T00:55:05.373Z,13.27
2023-02-25T01:00:16.331Z,13.10
2023-02-25T01:05:21.396Z,16.97
2023-02-25T01:10:31.478Z,12.67
2023-02-25T01:15:36.552Z,13.93
2023-02-25T01:20:44.702Z,13.93
2023-02-25T01:25:52.248Z,17.00
2023-02-25T01:30:59.295Z,16.13
2023-02-25T01:36:04.888Z,18.47
2023-02-25T01:41:20.200Z,14.83
2023-02-25T01:46:25.615Z,13.13
2023-02-25T01:51:31.950Z,14.60
2023-02-25T01:56:45.568Z,19.70
2023-02-25T02:01:52.703Z,12.67
2023-02-25T02:06:58.519Z,10.37
2023-02-25T02:12:08.783Z,13.67
2023-02-25T02:17:23.459Z,17.50
2023-02-25T02:22:36.316Z,12.63
2023-02-25T02:28:14.169Z,13.83
2023-02-25T02:33:28.907Z,10.93
2023-02-25T02:38:40.260Z,14.10
2023-02-25T02:43:53.826Z,13.60
2023-02-25T02:49:09.183Z,10.10
2023-02-25T02:54:16.970Z,13.63
2023-02-25T02:59:28.087Z,8.90
2023-02-25T03:04:40.403Z,14.53
2023-02-25T03:09:49.743Z,9.63
2023-02-25T03:14:56.580Z,10.83
2023-02-25T03:20:13.595Z,13.70
2023-02-25T03:25:23.397Z,12.97
2023-02-25T03:30:34.534Z,6.37
2023-02-25T03:35:44.045Z,5.43
2023-02-25T03:40:54.355Z,6.90
2023-02-25T03:46:03.193Z,10.03
2023-02-25T03:51:12.052Z,9.40
2023-02-25T03:56:20.648Z,9.77
2023-02-25T04:01:31.281Z,8.13
2023-02-25T04:06:39.710Z,5.77
2023-02-25T04:11:44.668Z,5.30
2023-02-25T04:16:49.633Z,7.03
2023-02-25T04:21:57.625Z,7.87
2023-02-25T04:27:03.473Z,6.47
2023-02-25T04:32:09.902Z,7.53
2023-02-25T04:37:19.865Z,4.13
2023-02-25T04:42:24.819Z,5.30
2023-02-25T04:47:29.799Z,5.03
2023-02-25T04:52:37.949Z,5.63
2023-02-25T04:57:44.092Z,8.07
2023-02-25T05:02:51.484Z,8.00
2023-02-25T05:08:01.341Z,6.20
2023-02-25T05:13:06.336Z,5.13
2023-02-25T05:18:11.297Z,4.37
2023-02-25T05:23:18.844Z,5.30
2023-02-25T05:28:24.275Z,7.03
2023-02-25T05:33:30.256Z,8.03
2023-02-25T05:38:38.273Z,3.93
2023-02-25T05:43:46.077Z,5.40
2023-02-25T05:48:51.212Z,5.80
2023-02-25T05:54:00.551Z,3.77
2023-02-25T05:59:05.471Z,3.70
2023-02-25T06:04:10.413Z,3.80
2023-02-25T06:09:18.934Z,4.97
2023-02-25T06:14:24.027Z,4.77
2023-02-25T06:19:29.478Z,3.73
2023-02-25T06:24:40.727Z,3.97
2023-02-25T06:29:45.852Z,3.50
2023-02-25T06:34:53.877Z,4.73
2023-02-25T06:40:01.882Z,2.93
2023-02-25T06:45:08.026Z,4.73
2023-02-25T06:50:17.824Z,9.37
2023-02-25T06:55:27.103Z,3.90
2023-02-25T07:00:34.487Z,4.90
2023-02-25T07:05:39.624Z,8.23
2023-02-25T07:10:51.651Z,5.57
2023-02-25T07:15:56.695Z,7.77
2023-02-25T07:21:03.813Z,7.67
2023-02-25T07:26:13.397Z,7.87
2023-02-25T07:31:25.954Z,5.00
2023-02-25T07:36:33.234Z,4.47
2023-02-25T07:41:41.162Z,5.60
2023-02-25T07:46:49.269Z,5.00
2023-02-25T07:51:56.880Z,4.47
2023-02-25T07:57:05.707Z,5.57
2023-02-25T08:02:11.468Z,5.23
2023-02-25T08:07:17.964Z,3.60
2023-02-25T08:12:25.563Z,4.37
2023-02-25T08:17:32.561Z,3.40
2023-02-25T08:22:38.740Z,3.33
2023-02-25T08:27:49.456Z,4.67
2023-02-25T08:32:54.665Z,3.30
2023-02-25T08:37:59.724Z,4.20
2023-02-25T08:43:07.250Z,3.70
2023-02-25T08:48:13.688Z,3.80
2023-02-25T08:53:21.412Z,3.83
2023-02-25T08:58:30.200Z,5.80
2023-02-25T09:03:38.984Z,6.73
2023-02-25T09:08:43.998Z,4.53
2023-02-25T09:13:52.025Z,3.90
2023-02-25T09:18:56.891Z,4.20
2023-02-25T09:24:01.934Z,4.17
2023-02-25T09:29:10.046Z,5.63
2023-02-25T09:34:15.989Z,4.07
2023-02-25T09:39:23.212Z,3.73
2023-02-25T09:44:33.826Z,5.87
2023-02-25T09:49:44.073Z,3.27
2023-02-25T09:54:51.109Z,3.30
2023-02-25T09:59:58.742Z,3.90
2023-02-25T10:05:23.971Z,2.80
2023-02-25T10:10:38.060Z,3.67
2023-02-25T10:15:56.678Z,2.70
2023-02-25T10:21:13.746Z,2.53
2023-02-25T10:26:22.684Z,2.97
2023-02-25T10:31:34.473Z,3.80
2023-02-25T10:36:45.720Z,2.60
2023-02-25T10:41:50.841Z,2.53
2023-02-25T10:47:01.872Z,4.00
2023-02-25T10:52:10.394Z,4.10
2023-02-25T10:57:20.476Z,3.13
2023-02-25T11:02:30.428Z,2.67
2023-02-25T11:07:37.751Z,4.60
2023-02-25T11:12:45.163Z,2.53
2023-02-25T11:17:52.652Z,2.57
2023-02-25T11:23:03.820Z,2.20
2023-02-25T11:28:20.634Z,2.37
2023-02-25T11:33:33.903Z,1.93
2023-02-25T11:38:40.425Z,2.70
2023-02-25T11:43:45.314Z,2.77
2023-02-25T11:49:00.097Z,2.70
2023-02-25T11:54:25.649Z,2.87
2023-02-25T11:59:40.486Z,3.03
2023-02-25T12:05:24.137Z,2.20
2023-02-25T12:10:58.605Z,3.07
2023-02-25T12:16:44.470Z,2.93
2023-02-25T12:22:22.696Z,2.60
2023-02-25T12:28:03.518Z,2.97
2023-02-25T12:33:26.758Z,2.60
2023-02-25T12:39:09.979Z,1.47
2023-02-25T12:44:44.063Z,1.10
2023-02-25T12:50:20.300Z,1.50
2023-02-25T12:55:45.917Z,1.50
2023-02-25T13:01:23.317Z,1.87
2023-02-25T13:06:58.137Z,2.07
2023-02-25T13:12:25.948Z,2.27
2023-02-25T13:18:03.911Z,2.40
2023-02-25T13:23:25.618Z,1.70
2023-02-25T13:28:49.290Z,2.50
2023-02-25T13:34:04.641Z,2.67
2023-02-25T13:39:48.291Z,2.90
2023-02-25T13:45:32.300Z,1.47
2023-02-25T13:50:54.300Z,2.30
2023-02-25T13:56:32.245Z,3.20
2023-02-25T14:01:50.118Z,2.83
2023-02-25T14:07:27.687Z,2.10
2023-02-25T14:12:47.101Z,2.50
2023-02-25T14:18:06.276Z,3.10
2023-02-25T14:23:20.020Z,4.00
2023-02-25T14:28:34.396Z,2.37
2023-02-25T14:33:57.803Z,2.07
2023-02-25T14:39:23.787Z,2.03
2023-02-25T14:44:37.229Z,1.80
2023-02-25T14:49:53.651Z,1.63
2023-02-25T14:55:24.904Z,1.60
2023-02-25T15:01:01.053Z,1.90
2023-02-25T15:06:35.325Z,1.93
2023-02-25T15:12:01.998Z,2.40
2023-02-25T15:17:29.370Z,2.03
2023-02-25T15:22:37.618Z,1.93
2023-02-25T15:27:52.482Z,1.57
2023-02-25T15:33:16.064Z,2.20
2023-02-25T15:38:43.417Z,2.30
2023-02-25T15:43:50.727Z,1.30
2023-02-25T15:49:07.572Z,1.70
2023-02-25T15:54:51.230Z,1.70
2023-02-25T16:00:02.740Z,2.33
2023-02-25T16:05:24.161Z,1.87
2023-02-25T16:10:38.111Z,1.60
2023-02-25T16:15:48.794Z,1.80
2023-02-25T16:20:56.300Z,1.93
2023-02-25T16:26:11.313Z,2.93
2023-02-25T16:31:22.995Z,4.93
2023-02-25T16:36:36.783Z,1.57
2023-02-25T16:41:44.917Z,3.33
2023-02-25T16:46:53.961Z,1.80
2023-02-25T16:51:59.785Z,1.60
2023-02-25T16:57:22.652Z,1.47
2023-02-25T17:02:28.162Z,2.93
2023-02-25T17:07:33.558Z,4.03
2023-02-25T17:12:45.756Z,1.87
2023-02-25T17:17:55.109Z,1.40
2023-02-25T17:23:05.170Z,3.00
2023-02-25T17:28:23.378Z,1.90
2023-02-25T17:33:32.151Z,2.40
2023-02-25T17:38:39.115Z,3.00
2023-02-25T17:43:46.879Z,2.47
2023-02-25T17:48:57.353Z,3.20
2023-02-25T17:54:06.219Z,2.97
2023-02-25T17:59:38.944Z,2.40
2023-02-25T18:04:45.471Z,2.83
2023-02-25T18:09:51.134Z,2.90
2023-02-25T18:15:01.684Z,3.57
2023-02-25T18:20:26.821Z,3.23
2023-02-25T18:25:34.796Z,2.17
2023-02-25T18:30:45.114Z,7.60
2023-02-25T18:35:51.396Z,2.97
2023-02-25T18:40:57.373Z,2.90
2023-02-25T18:46:04.867Z,2.00
2023-02-25T18:51:18.285Z,2.43
2023-02-25T18:56:23.719Z,2.47
2023-02-25T19:01:35.441Z,3.47
2023-02-25T19:06:40.464Z,2.93
2023-02-25T19:11:45.394Z,3.43
2023-02-25T19:16:52.990Z,3.70
2023-02-25T19:22:00.394Z,4.23
2023-02-25T19:27:05.437Z,2.60
2023-02-25T19:32:16.769Z,2.83
2023-02-25T19:37:23.168Z,3.73
2023-02-25T19:42:28.393Z,2.37
2023-02-25T19:47:36.160Z,2.50
2023-02-25T19:52:41.628Z,2.60
2023-02-25T19:57:47.472Z,2.30
2023-02-25T20:02:56.456Z,1.90
2023-02-25T20:08:01.407Z,2.60
2023-02-25T20:13:06.469Z,2.50
2023-02-25T20:18:14.066Z,2.00
2023-02-25T20:23:18.996Z,2.33
2023-02-25T20:28:24.175Z,4.07
2023-02-25T20:33:31.747Z,2.53
2023-02-25T20:38:41.286Z,2.90
2023-02-25T20:43:46.463Z,2.70
2023-02-25T20:48:54.250Z,2.70
2023-02-25T20:53:59.578Z,3.10
2023-02-25T20:59:04.992Z,2.77
2023-02-25T21:04:12.694Z,2.60
2023-02-25T21:09:18.001Z,2.90
2023-02-25T21:14:23.415Z,3.20
2023-02-25T21:19:31.591Z,2.07
2023-02-25T21:24:36.979Z,2.73
2023-02-25T21:29:42.073Z,2.90
2023-02-25T21:34:49.948Z,2.90
2023-02-25T21:39:55.216Z,2.30
2023-02-25T21:45:01.686Z,3.70
2023-02-25T21:50:15.961Z,3.20
2023-02-25T21:55:21.593Z,2.93
2023-02-25T22:00:26.572Z,2.77
2023-02-25T22:05:34.270Z,2.80
2023-02-25T22:10:40.078Z,3.30
2023-02-25T22:15:49.944Z,2.80
2023-02-25T22:21:06.397Z,2.57
2023-02-25T22:26:12.903Z,2.03
2023-02-25T22:31:21.573Z,3.63
2023-02-25T22:36:29.485Z,2.20
2023-02-25T22:41:34.734Z,2.80
2023-02-25T22:46:41.538Z,2.00
2023-02-25T22:51:50.543Z,3.53
2023-02-25T22:56:55.428Z,3.07
2023-02-25T23:02:00.632Z,2.60
2023-02-25T23:07:08.312Z,2.50
2023-02-25T23:12:13.235Z,3.00
2023-02-25T23:17:18.434Z,2.63
2023-02-25T23:22:29.208Z,2.80
2023-02-25T23:27:35.324Z,3.27
2023-02-25T23:32:41.135Z,3.87
2023-02-25T23:37:48.851Z,3.30
2023-02-25T23:42:53.743Z,3.10
2023-02-25T23:47:58.899Z,3.00
2023-02-25T23:53:06.382Z,4.03
2023-02-25T23:58:11.454Z,3.20
